Time;durP1;ratioP1;P1;durP2;ratioP2;P2;SDS_P1;SDS_P2;PMS_P1;PMS_P2;Temp;Humidity;BMP_temperature;BMP_pressure;BME280_temperature;BME280_humidity;BME280_pressure;Samples;Min_cycle;Max_cycle;Signal;HPM_P1;HPM_P2
2022/07/01 00:01:27;;;;;;;15;19.1;;;;;;;20.1;100;98170;;;;
2022/07/01 00:12:27;;;;;;;13;15.4;;;;;;;20;100;98170;;;;
2022/07/01 00:23:27;;;;;;;13;15.4;;;;;;;19.9;100;98170;;;;
2022/07/01 00:33:27;;;;;;;13;15.4;;;;;;;19.8;100;98160;;;;
2022/07/01 00:43:27;;;;;;;13;15.6;;;;;;;19.6;100;98150;;;;
2022/07/01 00:54:27;;;;;;;13;15.6;;;;;;;19.5;100;98150;;;;
2022/07/01 01:04:27;;;;;;;13;15.6;;;;;;;19.4;100;98130;;;;
2022/07/01 01:15:27;;;;;;;13.4;16.4;;;;;;;19.3;100;98140;;;;
2022/07/01 01:26:27;;;;;;;13.4;16.4;;;;;;;19.1;100;98140;;;;
2022/07/01 01:36:27;;;;;;;13.4;16.4;;;;;;;18.9;100;98140;;;;
2022/07/01 01:47:27;;;;;;;13.1;18.1;;;;;;;18.8;100;98150;;;;
2022/07/01 01:57:27;;;;;;;13.1;18.1;;;;;;;18.7;100;98150;;;;
2022/07/01 02:08:27;;;;;;;13.1;18.1;;;;;;;18.7;100;98150;;;;
2022/07/01 02:19:27;;;;;;;12.1;16.8;;;;;;;18.5;100;98170;;;;
2022/07/01 02:29:27;;;;;;;12.1;16.8;;;;;;;18.5;100;98170;;;;
2022/07/01 02:40:27;;;;;;;12.1;16.8;;;;;;;18.3;100;98170;;;;
2022/07/01 02:50:27;;;;;;;14.2;20.1;;;;;;;18.2;100;98180;;;;
2022/07/01 03:00:27;;;;;;;14.2;20.1;;;;;;;18.2;100;98180;;;;
2022/07/01 03:11:27;;;;;;;12.5;15.7;;;;;;;18.2;100;98190;;;;
2022/07/01 03:22:27;;;;;;;12.5;15.7;;;;;;;18.3;100;98190;;;;
2022/07/01 03:33:27;;;;;;;12.5;15.7;;;;;;;18.6;100;98200;;;;
2022/07/01 03:43:27;;;;;;;13.6;17.9;;;;;;;18.9;100;98190;;;;
2022/07/01 03:54:30;;;;;;;13.6;17.9;;;;;;;19.3;100;98200;;;;
2022/07/01 04:04:27;;;;;;;13.6;17.9;;;;;;;19.4;100;98200;;;;
2022/07/01 04:15:27;;;;;;;12.1;14.7;;;;;;;19.6;100;98200;;;;
2022/07/01 04:25:29;;;;;;;12.1;14.7;;;;;;;20.1;100;98210;;;;
2022/07/01 04:35:27;;;;;;;12.1;14.7;;;;;;;20.6;100;98210;;;;
2022/07/01 04:46:27;;;;;;;12.1;14.9;;;;;;;21.3;100;98210;;;;
2022/07/01 04:57:27;;;;;;;12.1;14.9;;;;;;;22;100;98220;;;;
2022/07/01 05:08:28;;;;;;;12.1;14.9;;;;;;;22.4;100;98220;;;;
2022/07/01 05:29:27;;;;;;;11.1;14.7;;;;;;;23.4;100;98210;;;;
2022/07/01 05:40:27;;;;;;;11.1;14.7;;;;;;;23.8;100;98210;;;;
2022/07/01 05:51:27;;;;;;;9.4;12.6;;;;;;;24.3;100;98220;;;;
2022/07/01 06:02:27;;;;;;;9.4;12.6;;;;;;;24.7;100;98210;;;;
2022/07/01 06:12:27;;;;;;;8.7;13.7;;;;;;;25.1;100;98220;;;;
2022/07/01 06:23:27;;;;;;;8.7;13.7;;;;;;;25.5;100;98220;;;;
2022/07/01 06:33:29;;;;;;;8.7;13.7;;;;;;;26;100;98220;;;;
2022/07/01 06:43:27;;;;;;;7.9;11.1;;;;;;;26.3;100;98220;;;;
2022/07/01 06:54:28;;;;;;;7.9;11.1;;;;;;;26.6;100;98220;;;;
2022/07/01 07:04:27;;;;;;;7.9;11.1;;;;;;;27.1;100;98220;;;;
2022/07/01 07:15:27;;;;;;;7.6;10.1;;;;;;;27.6;100;98230;;;;
2022/07/01 07:26:27;;;;;;;7.6;10.1;;;;;;;28.1;100;98220;;;;
2022/07/01 07:36:27;;;;;;;7.6;10.1;;;;;;;28.3;100;98220;;;;
2022/07/01 07:47:27;;;;;;;7.8;11.8;;;;;;;28.5;100;98220;;;;
2022/07/01 07:57:27;;;;;;;7.8;11.8;;;;;;;29;100;98230;;;;
2022/07/01 08:07:28;;;;;;;7.8;11.8;;;;;;;29.4;100;98230;;;;
2022/07/01 08:17:27;;;;;;;8.1;11.6;;;;;;;29.7;100;98230;;;;
2022/07/01 08:28:27;;;;;;;8.1;11.6;;;;;;;29.9;100;98220;;;;
2022/07/01 08:38:27;;;;;;;8.1;11.6;;;;;;;30.5;99.3;98220;;;;
2022/07/01 08:48:27;;;;;;;8.9;13.2;;;;;;;30.3;100;98220;;;;
2022/07/01 08:59:27;;;;;;;8.9;13.2;;;;;;;30.8;95;98220;;;;
2022/07/01 09:10:27;;;;;;;8.9;13.2;;;;;;;31.2;94.1;98220;;;;
2022/07/01 09:20:27;;;;;;;7.6;12.4;;;;;;;31.5;92.5;98220;;;;
2022/07/01 09:30:27;;;;;;;7.6;12.4;;;;;;;32;89.8;98230;;;;
2022/07/01 09:40:27;;;;;;;7.6;12.4;;;;;;;32.2;90.7;98230;;;;
2022/07/01 09:51:27;;;;;;;8;12.6;;;;;;;32.5;89.3;98240;;;;
2022/07/01 10:02:29;;;;;;;8;12.6;;;;;;;32.7;88.6;98240;;;;
2022/07/01 10:12:27;;;;;;;7.9;11.9;;;;;;;32.8;87.9;98230;;;;
2022/07/01 10:23:27;;;;;;;7.9;11.9;;;;;;;33.1;83.2;98230;;;;
2022/07/01 10:33:27;;;;;;;7.9;11.9;;;;;;;33;85.9;98200;;;;
2022/07/01 10:44:27;;;;;;;6.6;9.2;;;;;;;33.2;78.8;98190;;;;
2022/07/01 10:54:27;;;;;;;6.6;9.2;;;;;;;33.3;72.1;98180;;;;
2022/07/01 11:04:27;;;;;;;6.6;9.2;;;;;;;33.5;70.5;98180;;;;
2022/07/01 11:15:27;;;;;;;5.7;8.4;;;;;;;33.7;67.3;98180;;;;
2022/07/01 11:25:28;;;;;;;5.7;8.4;;;;;;;33.7;68.5;98170;;;;
2022/07/01 11:46:27;;;;;;;5.3;10.4;;;;;;;34.8;66.6;98150;;;;
2022/07/01 11:57:27;;;;;;;5.3;10.4;;;;;;;34.4;67.7;98150;;;;
2022/07/01 12:07:27;;;;;;;5.3;10.4;;;;;;;35;67;98130;;;;
2022/07/01 12:17:27;;;;;;;5.6;10.5;;;;;;;35.2;65.8;98130;;;;
2022/07/01 12:28:27;;;;;;;5.6;10.5;;;;;;;35.6;63.7;98120;;;;
2022/07/01 12:38:27;;;;;;;5.6;10.5;;;;;;;35.3;61.9;98110;;;;
2022/07/01 12:49:27;;;;;;;5.5;8.9;;;;;;;36;58.3;98110;;;;
2022/07/01 12:59:27;;;;;;;5.5;8.9;;;;;;;36;59;98100;;;;
2022/07/01 13:10:27;;;;;;;5.5;8.9;;;;;;;36.2;57.4;98110;;;;
2022/07/01 13:20:27;;;;;;;4.9;8.5;;;;;;;36.6;57.4;98110;;;;
2022/07/01 13:31:27;;;;;;;4.9;8.5;;;;;;;36.2;57.4;98110;;;;
2022/07/01 13:42:27;;;;;;;4.3;7.6;;;;;;;36.7;53.6;98110;;;;
2022/07/01 13:53:27;;;;;;;4.3;7.6;;;;;;;36.8;51.5;98100;;;;
2022/07/01 14:03:27;;;;;;;4.3;7.6;;;;;;;36.5;53.9;98100;;;;
2022/07/01 14:13:27;;;;;;;4.6;7.9;;;;;;;37.2;56.3;98070;;;;
2022/07/01 14:24:27;;;;;;;4.6;7.9;;;;;;;36.8;52.9;98070;;;;
2022/07/01 14:35:27;;;;;;;4.6;7.9;;;;;;;36.3;58;98060;;;;
2022/07/01 14:46:28;;;;;;;4.8;9.4;;;;;;;35.9;55.9;98060;;;;
2022/07/01 14:57:27;;;;;;;4.8;9.4;;;;;;;36;55.4;98070;;;;
2022/07/01 15:07:28;;;;;;;4.8;9.4;;;;;;;35.7;55.7;98080;;;;
2022/07/01 15:17:27;;;;;;;5.2;9.1;;;;;;;36.6;54.3;98080;;;;
2022/07/01 15:27:27;;;;;;;5.2;9.1;;;;;;;36.5;54.5;98090;;;;
2022/07/01 15:37:27;;;;;;;5.2;9.1;;;;;;;37.1;50.9;98100;;;;
2022/07/01 15:48:27;;;;;;;4.3;7.2;;;;;;;40.6;49.1;98110;;;;
2022/07/01 15:59:27;;;;;;;4.3;7.2;;;;;;;42.9;41.4;98110;;;;
2022/07/01 16:10:27;;;;;;;4.3;7.2;;;;;;;43.7;40.6;98100;;;;
2022/07/01 16:20:27;;;;;;;3.8;6.5;;;;;;;43.8;38;98100;;;;
2022/07/01 16:31:27;;;;;;;3.8;6.5;;;;;;;43.2;37.5;98080;;;;
2022/07/01 16:41:27;;;;;;;3.8;6.5;;;;;;;44.2;36.8;98090;;;;
2022/07/01 16:51:27;;;;;;;4.3;8.2;;;;;;;43.2;37.2;98100;;;;
2022/07/01 17:02:27;;;;;;;4.3;8.2;;;;;;;43.2;37.2;98100;;;;
2022/07/01 17:13:28;;;;;;;3.9;7.2;;;;;;;39.4;42.1;98090;;;;
2022/07/01 17:23:27;;;;;;;3.9;7.2;;;;;;;37.1;50.6;98070;;;;
2022/07/01 17:34:28;;;;;;;3.9;7.2;;;;;;;35.1;60.9;98060;;;;
2022/07/01 17:44:27;;;;;;;8.1;18.3;;;;;;;33.6;62.8;98070;;;;
2022/07/01 17:55:28;;;;;;;8.1;18.3;;;;;;;32.4;68.5;98080;;;;
2022/07/01 18:05:27;;;;;;;8.1;18.3;;;;;;;31.3;68.6;98100;;;;
2022/07/01 18:16:27;;;;;;;7;17.6;;;;;;;30.5;72.1;98120;;;;
2022/07/01 18:27:27;;;;;;;7;17.6;;;;;;;29.8;78.5;98160;;;;
2022/07/01 18:37:27;;;;;;;7;17.6;;;;;;;28.9;85;98170;;;;
2022/07/01 18:48:27;;;;;;;8;17.5;;;;;;;28.2;94.5;98180;;;;
2022/07/01 18:59:27;;;;;;;8;17.5;;;;;;;27.6;100;98210;;;;
2022/07/01 19:10:27;;;;;;;8;17.5;;;;;;;27.1;100;98230;;;;
2022/07/01 19:20:27;;;;;;;8.2;13.6;;;;;;;26.9;100;98240;;;;
2022/07/01 19:30:28;;;;;;;8.2;13.6;;;;;;;26.5;100;98290;;;;
2022/07/01 19:40:27;;;;;;;8.2;13.6;;;;;;;26.1;100;98300;;;;
2022/07/01 19:51:27;;;;;;;9.7;15.8;;;;;;;25.9;100;98340;;;;
2022/07/01 20:02:28;;;;;;;9.7;15.8;;;;;;;25.5;100;98400;;;;
2022/07/01 20:12:28;;;;;;;9.7;15.8;;;;;;;25.1;100;98430;;;;
2022/07/01 20:23:27;;;;;;;9.3;11.6;;;;;;;24.9;100;98490;;;;
2022/07/01 20:33:28;;;;;;;9.3;11.6;;;;;;;24.6;100;98550;;;;
2022/07/01 20:44:27;;;;;;;9.2;14.4;;;;;;;24.6;100;98590;;;;
2022/07/01 20:54:28;;;;;;;9.2;14.4;;;;;;;23.8;100;98600;;;;
2022/07/01 21:05:27;;;;;;;9.2;14.4;;;;;;;23.3;100;98620;;;;
2022/07/01 21:15:28;;;;;;;8.7;15.2;;;;;;;23;100;98620;;;;
2022/07/01 21:25:28;;;;;;;8.7;15.2;;;;;;;23;100;98650;;;;
2022/07/01 21:35:27;;;;;;;8.7;15.2;;;;;;;22.9;100;98680;;;;
2022/07/01 21:46:28;;;;;;;10.9;14.3;;;;;;;22.5;100;98690;;;;
2022/07/01 21:57:28;;;;;;;10.9;14.3;;;;;;;22.1;100;98700;;;;
2022/07/01 22:08:28;;;;;;;10.9;14.3;;;;;;;21.9;100;98740;;;;
2022/07/01 22:18:29;;;;;;;12.5;14.9;;;;;;;21.6;100;98780;;;;
2022/07/01 22:29:28;;;;;;;12.5;14.9;;;;;;;20.9;100;98790;;;;
2022/07/01 22:40:28;;;;;;;12.5;14.9;;;;;;;20.4;100;98810;;;;
2022/07/01 22:50:27;;;;;;;10.9;14;;;;;;;20;100;98810;;;;
2022/07/01 23:01:28;;;;;;;10.9;14;;;;;;;19.8;100;98790;;;;
2022/07/01 23:11:28;;;;;;;10.9;14;;;;;;;19.7;100;98820;;;;
2022/07/01 23:21:28;;;;;;;8.6;13;;;;;;;19.6;100;98810;;;;
2022/07/01 23:32:28;;;;;;;8.6;13;;;;;;;19.5;100;98870;;;;
2022/07/01 23:43:28;;;;;;;10.8;13.8;;;;;;;19.4;100;98890;;;;
2022/07/01 23:53:28;;;;;;;10.8;13.8;;;;;;;19;100;98890;;;;
